sensor_id;sensor_type;location;lat;lon;timestamp;pressure;altitude;pressure_sealevel;temperature;humidity
15914;BME280;8055;51.930;8.840;2023-05-20T00:00:05;76818.06;;;-145.72;100.00
15914;BME280;8055;51.930;8.840;2023-05-20T00:02:31;76828.41;;;-145.72;100.00
15914;BME280;8055;51.930;8.840;2023-05-20T00:04:57;76820.13;;;-145.72;100.00
15914;BME280;8055;51.930;8.840;2023-05-20T00:07:22;76822.19;;;-145.72;100.00
15914;BME280;8055;51.930;8.840;2023-05-20T00:09:48;76822.19;;;-145.72;100.00
15914;BME280;8055;51.930;8.840;2023-05-20T00:12:13;76836.69;;;-145.72;100.00
15914;BME280;8055;51.930;8.840;2023-05-20T00:14:38;76832.53;;;-145.72;100.00
15914;BME280;8055;51.930;8.840;2023-05-20T00:17:04;76840.81;;;-145.72;100.00
15914;BME280;8055;51.930;8.840;2023-05-20T00:19:29;76842.91;;;-145.72;100.00
15914;BME280;8055;51.930;8.840;2023-05-20T00:21:55;76842.91;;;-145.72;100.00
15914;BME280;8055;51.930;8.840;2023-05-20T00:24:22;76842.91;;;-145.72;100.00
15914;BME280;8055;51.930;8.840;2023-05-20T00:26:47;76847.03;;;-145.72;100.00
15914;BME280;8055;51.930;8.840;2023-05-20T00:29:12;76861.53;;;-145.72;100.00
15914;BME280;8055;51.930;8.840;2023-05-20T00:31:38;76863.59;;;-145.72;100.00
15914;BME280;8055;51.930;8.840;2023-05-20T00:34:03;76861.53;;;-145.72;100.00
15914;BME280;8055;51.930;8.840;2023-05-20T00:36:29;76857.38;;;-145.72;100.00
15914;BME280;8055;51.930;8.840;2023-05-20T00:38:55;76865.66;;;-145.72;100.00
15914;BME280;8055;51.930;8.840;2023-05-20T00:41:20;76863.59;;;-145.72;100.00
15914;BME280;8055;51.930;8.840;2023-05-20T00:43:46;76878.09;;;-145.72;100.00
15914;BME280;8055;51.930;8.840;2023-05-20T00:46:11;76878.09;;;-145.72;100.00
15914;BME280;8055;51.930;8.840;2023-05-20T00:48:42;76871.88;;;-145.72;100.00
15914;BME280;8055;51.930;8.840;2023-05-20T00:51:09;76894.63;;;-145.72;100.00
15914;BME280;8055;51.930;8.840;2023-05-20T00:53:35;76896.72;;;-145.72;100.00
15914;BME280;8055;51.930;8.840;2023-05-20T00:56:02;76890.50;;;-145.72;100.00
15914;BME280;8055;51.930;8.840;2023-05-20T00:58:28;76884.28;;;-145.72;100.00
15914;BME280;8055;51.930;8.840;2023-05-20T01:00:54;76880.16;;;-145.72;100.00
15914;BME280;8055;51.930;8.840;2023-05-20T01:03:19;76888.44;;;-145.72;100.00
15914;BME280;8055;51.930;8.840;2023-05-20T01:05:45;76896.72;;;-145.72;100.00
15914;BME280;8055;51.930;8.840;2023-05-20T01:08:10;76905.00;;;-145.72;100.00
15914;BME280;8055;51.930;8.840;2023-05-20T01:10:39;76892.56;;;-145.72;100.00
15914;BME280;8055;51.930;8.840;2023-05-20T01:13:10;76913.28;;;-145.72;100.00
15914;BME280;8055;51.930;8.840;2023-05-20T01:15:39;76900.84;;;-145.72;100.00
15914;BME280;8055;51.930;8.840;2023-05-20T01:18:07;76909.13;;;-145.72;100.00
15914;BME280;8055;51.930;8.840;2023-05-20T01:20:35;76919.47;;;-145.72;100.00
15914;BME280;8055;51.930;8.840;2023-05-20T01:23:01;76917.41;;;-145.72;100.00
15914;BME280;8055;51.930;8.840;2023-05-20T01:25:27;76915.34;;;-145.72;100.00
15914;BME280;8055;51.930;8.840;2023-05-20T01:27:54;76911.19;;;-145.72;100.00
15914;BME280;8055;51.930;8.840;2023-05-20T01:30:23;76919.47;;;-145.72;100.00
15914;BME280;8055;51.930;8.840;2023-05-20T01:32:53;76925.69;;;-145.72;100.00
15914;BME280;8055;51.930;8.840;2023-05-20T01:35:21;76929.81;;;-145.72;100.00
15914;BME280;8055;51.930;8.840;2023-05-20T01:37:47;76938.09;;;-145.72;100.00
15914;BME280;8055;51.930;8.840;2023-05-20T01:40:14;76938.09;;;-145.72;100.00
15914;BME280;8055;51.930;8.840;2023-05-20T01:42:41;76938.09;;;-145.72;100.00
15914;BME280;8055;51.930;8.840;2023-05-20T01:45:08;76933.97;;;-145.72;100.00
15914;BME280;8055;51.930;8.840;2023-05-20T01:47:33;76923.63;;;-145.72;100.00
15914;BME280;8055;51.930;8.840;2023-05-20T01:49:59;76923.63;;;-145.72;100.00
15914;BME280;8055;51.930;8.840;2023-05-20T01:52:24;76944.31;;;-145.72;100.00
15914;BME280;8055;51.930;8.840;2023-05-20T01:54:50;76942.25;;;-145.72;100.00
15914;BME280;8055;51.930;8.840;2023-05-20T01:57:22;76948.47;;;-145.72;100.00
15914;BME280;8055;51.930;8.840;2023-05-20T01:59:48;76950.53;;;-145.72;100.00
15914;BME280;8055;51.930;8.840;2023-05-20T02:02:14;76950.53;;;-145.72;100.00
15914;BME280;8055;51.930;8.840;2023-05-20T02:04:42;76944.31;;;-145.72;100.00
15914;BME280;8055;51.930;8.840;2023-05-20T02:07:08;76944.31;;;-145.72;100.00
15914;BME280;8055;51.930;8.840;2023-05-20T02:09:33;76940.19;;;-145.72;100.00
15914;BME280;8055;51.930;8.840;2023-05-20T02:11:58;76936.03;;;-145.72;100.00
15914;BME280;8055;51.930;8.840;2023-05-20T02:14:24;76952.59;;;-145.72;100.00
15914;BME280;8055;51.930;8.840;2023-05-20T02:16:49;76942.25;;;-145.72;100.00
15914;BME280;8055;51.930;8.840;2023-05-20T02:19:15;76944.31;;;-145.72;100.00
15914;BME280;8055;51.930;8.840;2023-05-20T02:21:47;76946.38;;;-145.72;100.00
15914;BME280;8055;51.930;8.840;2023-05-20T02:24:13;76948.47;;;-145.72;100.00
15914;BME280;8055;51.930;8.840;2023-05-20T02:26:38;76958.81;;;-145.72;100.00
15914;BME280;8055;51.930;8.840;2023-05-20T02:29:03;76960.88;;;-145.72;100.00
15914;BME280;8055;51.930;8.840;2023-05-20T02:31:29;76969.16;;;-145.72;100.00
15914;BME280;8055;51.930;8.840;2023-05-20T02:33:54;76958.81;;;-145.72;100.00
15914;BME280;8055;51.930;8.840;2023-05-20T02:36:20;76958.81;;;-145.72;100.00
15914;BME280;8055;51.930;8.840;2023-05-20T02:38:45;76946.38;;;-145.72;100.00
15914;BME280;8055;51.930;8.840;2023-05-20T02:41:10;76938.09;;;-145.72;100.00
15914;BME280;8055;51.930;8.840;2023-05-20T02:43:36;76944.31;;;-145.72;100.00
15914;BME280;8055;51.930;8.840;2023-05-20T02:46:02;76954.66;;;-145.72;100.00
15914;BME280;8055;51.930;8.840;2023-05-20T02:48:27;76952.59;;;-145.72;100.00
15914;BME280;8055;51.930;8.840;2023-05-20T02:50:52;76946.38;;;-145.72;100.00
15914;BME280;8055;51.930;8.840;2023-05-20T02:53:18;76942.25;;;-145.72;100.00
15914;BME280;8055;51.930;8.840;2023-05-20T02:55:45;76938.09;;;-145.72;100.00
15914;BME280;8055;51.930;8.840;2023-05-20T02:58:13;76925.69;;;-145.72;100.00
15914;BME280;8055;51.930;8.840;2023-05-20T03:00:39;76919.47;;;-145.72;100.00
15914;BME280;8055;51.930;8.840;2023-05-20T03:03:07;76917.41;;;-145.72;100.00
15914;BME280;8055;51.930;8.840;2023-05-20T03:05:34;76909.13;;;-145.72;100.00
15914;BME280;8055;51.930;8.840;2023-05-20T03:08:09;76900.84;;;-145.72;100.00
15914;BME280;8055;51.930;8.840;2023-05-20T03:10:38;76896.72;;;-145.72;100.00
15914;BME280;8055;51.930;8.840;2023-05-20T03:13:05;76892.56;;;-145.72;100.00
15914;BME280;8055;51.930;8.840;2023-05-20T03:15:38;76886.38;;;-145.72;100.00
15914;BME280;8055;51.930;8.840;2023-05-20T03:18:04;76886.38;;;-145.72;100.00
15914;BME280;8055;51.930;8.840;2023-05-20T03:20:30;76880.16;;;-145.72;100.00
15914;BME280;8055;51.930;8.840;2023-05-20T03:22:57;76871.88;;;-145.72;100.00
15914;BME280;8055;51.930;8.840;2023-05-20T03:25:23;76886.38;;;-145.72;100.00
15914;BME280;8055;51.930;8.840;2023-05-20T03:27:50;76878.09;;;-145.72;100.00
15914;BME280;8055;51.930;8.840;2023-05-20T03:30:15;76871.88;;;-145.72;100.00
15914;BME280;8055;51.930;8.840;2023-05-20T03:32:41;76871.88;;;-145.72;100.00
15914;BME280;8055;51.930;8.840;2023-05-20T03:35:06;76873.94;;;-145.72;100.00
15914;BME280;8055;51.930;8.840;2023-05-20T03:37:33;76867.72;;;-145.72;100.00
15914;BME280;8055;51.930;8.840;2023-05-20T03:39:58;76869.81;;;-145.72;100.00
15914;BME280;8055;51.930;8.840;2023-05-20T03:42:23;76857.38;;;-145.72;100.00
15914;BME280;8055;51.930;8.840;2023-05-20T03:44:49;76865.66;;;-145.72;100.00
15914;BME280;8055;51.930;8.840;2023-05-20T03:47:14;76853.25;;;-145.72;100.00
15914;BME280;8055;51.930;8.840;2023-05-20T03:49:39;76847.03;;;-145.72;100.00
15914;BME280;8055;51.930;8.840;2023-05-20T03:52:06;76836.69;;;-145.72;100.00
15914;BME280;8055;51.930;8.840;2023-05-20T03:54:31;76828.41;;;-145.72;100.00
15914;BME280;8055;51.930;8.840;2023-05-20T03:56:56;76816.00;;;-145.72;100.00
15914;BME280;8055;51.930;8.840;2023-05-20T03:59:22;76809.78;;;-145.72;100.00
15914;BME280;8055;51.930;8.840;2023-05-20T04:01:47;76801.50;;;-145.72;100.00
15914;BME280;8055;51.930;8.840;2023-05-20T04:04:13;76787.00;;;-145.72;100.00
15914;BME280;8055;51.930;8.840;2023-05-20T04:06:38;76782.88;;;-145.72;100.00
15914;BME280;8055;51.930;8.840;2023-05-20T04:09:04;76778.72;;;-145.72;100.00
15914;BME280;8055;51.930;8.840;2023-05-20T04:11:30;76776.66;;;-145.72;100.00
15914;BME280;8055;51.930;8.840;2023-05-20T04:13:55;76772.53;;;-145.72;100.00
15914;BME280;8055;51.930;8.840;2023-05-20T04:16:22;76766.31;;;-145.72;100.00
15914;BME280;8055;51.930;8.840;2023-05-20T04:18:48;76758.03;;;-145.72;100.00
15914;BME280;8055;51.930;8.840;2023-05-20T04:21:14;76747.69;;;-145.72;100.00
15914;BME280;8055;51.930;8.840;2023-05-20T04:23:40;76733.19;;;-145.72;100.00
15914;BME280;8055;51.930;8.840;2023-05-20T04:26:05;76729.06;;;-145.72;100.00
15914;BME280;8055;51.930;8.840;2023-05-20T04:28:31;76712.50;;;-145.72;100.00
15914;BME280;8055;51.930;8.840;2023-05-20T04:30:58;76702.16;;;-145.72;100.00
15914;BME280;8055;51.930;8.840;2023-05-20T04:33:24;76693.88;;;-145.72;100.00
15914;BME280;8055;51.930;8.840;2023-05-20T04:35:50;76683.53;;;-145.72;100.00
15914;BME280;8055;51.930;8.840;2023-05-20T04:38:16;76669.03;;;-145.72;100.00
15914;BME280;8055;51.930;8.840;2023-05-20T04:40:41;76658.69;;;-145.72;100.00
15914;BME280;8055;51.930;8.840;2023-05-20T04:43:07;76658.69;;;-145.72;100.00
15914;BME280;8055;51.930;8.840;2023-05-20T04:45:33;76652.47;;;-145.72;100.00
15914;BME280;8055;51.930;8.840;2023-05-20T04:47:59;76644.19;;;-145.72;100.00
15914;BME280;8055;51.930;8.840;2023-05-20T04:50:25;76635.94;;;-145.72;100.00
15914;BME280;8055;51.930;8.840;2023-05-20T04:52:51;76640.06;;;-145.72;100.00
15914;BME280;8055;51.930;8.840;2023-05-20T04:55:16;76631.78;;;-145.72;100.00
15914;BME280;8055;51.930;8.840;2023-05-20T04:57:42;76613.16;;;-145.72;100.00
15914;BME280;8055;51.930;8.840;2023-05-20T05:00:11;76615.22;;;-145.72;100.00
15914;BME280;8055;51.930;8.840;2023-05-20T05:02:37;76606.94;;;-145.72;100.00
15914;BME280;8055;51.930;8.840;2023-05-20T05:05:03;76602.81;;;-145.72;100.00
15914;BME280;8055;51.930;8.840;2023-05-20T05:07:29;76594.53;;;-145.72;100.00
15914;BME280;8055;51.930;8.840;2023-05-20T05:09:54;76594.53;;;-145.72;100.00
15914;BME280;8055;51.930;8.840;2023-05-20T05:12:20;76592.47;;;-145.72;100.00
15914;BME280;8055;51.930;8.840;2023-05-20T05:14:45;76584.19;;;-145.72;100.00
15914;BME280;8055;51.930;8.840;2023-05-20T05:17:11;76577.97;;;-145.72;100.00
15914;BME280;8055;51.930;8.840;2023-05-20T05:19:36;76580.03;;;-145.72;100.00
15914;BME280;8055;51.930;8.840;2023-05-20T05:22:02;76575.91;;;-145.72;100.00
15914;BME280;8055;51.930;8.840;2023-05-20T05:24:27;76571.75;;;-145.72;100.00
15914;BME280;8055;51.930;8.840;2023-05-20T05:26:53;76571.75;;;-145.72;100.00
15914;BME280;8055;51.930;8.840;2023-05-20T05:29:18;76557.28;;;-145.72;100.00
15914;BME280;8055;51.930;8.840;2023-05-20T05:31:44;76540.72;;;-145.72;100.00
15914;BME280;8055;51.930;8.840;2023-05-20T05:34:09;76524.16;;;-145.72;100.00
15914;BME280;8055;51.930;8.840;2023-05-20T05:36:38;76495.19;;;-145.72;100.00
15914;BME280;8055;51.930;8.840;2023-05-20T05:39:04;76474.50;;;-145.72;100.00
15914;BME280;8055;51.930;8.840;2023-05-20T05:41:29;76453.78;;;-145.72;100.00
15914;BME280;8055;51.930;8.840;2023-05-20T05:43:55;76441.38;;;-145.72;100.00
15914;BME280;8055;51.930;8.840;2023-05-20T05:46:20;76435.16;;;-145.72;100.00
15914;BME280;8055;51.930;8.840;2023-05-20T05:48:46;76422.75;;;-145.72;100.00
15914;BME280;8055;51.930;8.840;2023-05-20T05:51:14;76408.25;;;-145.72;100.00
15914;BME280;8055;51.930;8.840;2023-05-20T05:53:39;76393.78;;;-145.72;100.00
15914;BME280;8055;51.930;8.840;2023-05-20T05:56:05;76377.22;;;-145.72;100.00
15914;BME280;8055;51.930;8.840;2023-05-20T05:58:31;76356.53;;;-145.72;100.00
15914;BME280;8055;51.930;8.840;2023-05-20T06:00:57;76333.75;;;-145.72;100.00
15914;BME280;8055;51.930;8.840;2023-05-20T06:03:22;76308.94;;;-145.72;100.00
15914;BME280;8055;51.930;8.840;2023-05-20T06:05:48;76290.31;;;-145.72;100.00
15914;BME280;8055;51.930;8.840;2023-05-20T06:08:14;76275.81;;;-145.72;100.00
15914;BME280;8055;51.930;8.840;2023-05-20T06:10:39;76265.47;;;-145.72;100.00
15914;BME280;8055;51.930;8.840;2023-05-20T06:13:04;76261.34;;;-145.72;100.00
15914;BME280;8055;51.930;8.840;2023-05-20T06:15:30;76246.84;;;-145.72;100.00
15914;BME280;8055;51.930;8.840;2023-05-20T06:17:55;76234.44;;;-145.72;100.00
15914;BME280;8055;51.930;8.840;2023-05-20T06:20:21;76226.16;;;-145.72;100.00
15914;BME280;8055;51.930;8.840;2023-05-20T06:22:46;76209.59;;;-145.72;100.00
15914;BME280;8055;51.930;8.840;2023-05-20T06:25:12;76197.19;;;-145.72;100.00
15914;BME280;8055;51.930;8.840;2023-05-20T06:27:38;76197.19;;;-145.72;100.00
15914;BME280;8055;51.930;8.840;2023-05-20T06:30:03;76184.75;;;-145.72;100.00
15914;BME280;8055;51.930;8.840;2023-05-20T06:32:29;76180.63;;;-145.72;100.00
15914;BME280;8055;51.930;8.840;2023-05-20T06:34:55;76190.97;;;-145.72;100.00
15914;BME280;8055;51.930;8.840;2023-05-20T06:37:20;76190.97;;;-145.72;100.00
15914;BME280;8055;51.930;8.840;2023-05-20T06:39:48;76178.56;;;-145.72;100.00
15914;BME280;8055;51.930;8.840;2023-05-20T06:42:18;76188.91;;;-145.72;100.00
15914;BME280;8055;51.930;8.840;2023-05-20T06:44:44;76197.19;;;-145.72;100.00
15914;BME280;8055;51.930;8.840;2023-05-20T06:47:09;76188.91;;;-145.72;100.00
15914;BME280;8055;51.930;8.840;2023-05-20T06:49:34;76180.63;;;-145.72;100.00
15914;BME280;8055;51.930;8.840;2023-05-20T06:52:00;76182.69;;;-145.72;100.00
15914;BME280;8055;51.930;8.840;2023-05-20T06:54:25;76178.56;;;-145.72;100.00
15914;BME280;8055;51.930;8.840;2023-05-20T06:56:50;76164.06;;;-145.72;100.00
15914;BME280;8055;51.930;8.840;2023-05-20T06:59:16;76153.72;;;-145.72;100.00
15914;BME280;8055;51.930;8.840;2023-05-20T07:01:41;76141.31;;;-145.72;100.00
15914;BME280;8055;51.930;8.840;2023-05-20T07:04:06;76120.59;;;-145.72;100.00
15914;BME280;8055;51.930;8.840;2023-05-20T07:06:32;76104.06;;;-145.72;100.00
15914;BME280;8055;51.930;8.840;2023-05-20T07:08:57;76089.56;;;-145.72;100.00
15914;BME280;8055;51.930;8.840;2023-05-20T07:11:23;76073.00;;;-145.72;100.00
15914;BME280;8055;51.930;8.840;2023-05-20T07:13:49;76054.38;;;-145.72;100.00
15914;BME280;8055;51.930;8.840;2023-05-20T07:16:14;76031.63;;;-145.72;100.00
15914;BME280;8055;51.930;8.840;2023-05-20T07:18:40;76006.78;;;-145.72;100.00
15914;BME280;8055;51.930;8.840;2023-05-20T07:21:05;76010.94;;;-145.72;100.00
15914;BME280;8055;51.930;8.840;2023-05-20T07:23:31;76000.59;;;-145.72;100.00
15914;BME280;8055;51.930;8.840;2023-05-20T07:25:56;76010.94;;;-145.72;100.00
15914;BME280;8055;51.930;8.840;2023-05-20T07:28:21;76027.47;;;-145.72;100.00
15914;BME280;8055;51.930;8.840;2023-05-20T07:30:47;76035.75;;;-145.72;100.00
15914;BME280;8055;51.930;8.840;2023-05-20T07:33:15;76035.75;;;-145.72;100.00
15914;BME280;8055;51.930;8.840;2023-05-20T07:35:42;76019.22;;;-145.72;100.00
15914;BME280;8055;51.930;8.840;2023-05-20T07:38:07;75992.31;;;-145.72;100.00
15914;BME280;8055;51.930;8.840;2023-05-20T07:40:32;75961.25;;;-145.72;100.00
15914;BME280;8055;51.930;8.840;2023-05-20T07:42:58;75932.28;;;-145.72;100.00
15914;BME280;8055;51.930;8.840;2023-05-20T07:45:23;75903.31;;;-145.72;100.00
15914;BME280;8055;51.930;8.840;2023-05-20T07:47:48;75868.16;;;-145.72;100.00
15914;BME280;8055;51.930;8.840;2023-05-20T07:50:14;75845.38;;;-145.72;100.00
15914;BME280;8055;51.930;8.840;2023-05-20T07:52:39;75814.34;;;-145.72;100.00
15914;BME280;8055;51.930;8.840;2023-05-20T07:55:05;75804.00;;;-145.72;100.00
15914;BME280;8055;51.930;8.840;2023-05-20T07:57:31;75801.94;;;-145.72;100.00
15914;BME280;8055;51.930;8.840;2023-05-20T07:59:56;75808.13;;;-145.72;100.00
15914;BME280;8055;51.930;8.840;2023-05-20T08:02:22;75812.28;;;-145.72;100.00
15914;BME280;8055;51.930;8.840;2023-05-20T08:04:47;75808.13;;;-145.72;100.00
15914;BME280;8055;51.930;8.840;2023-05-20T08:07:12;75806.06;;;-145.72;100.00
15914;BME280;8055;51.930;8.840;2023-05-20T08:09:38;75793.66;;;-145.72;100.00
15914;BME280;8055;51.930;8.840;2023-05-20T08:12:03;75791.59;;;-145.72;100.00
15914;BME280;8055;51.930;8.840;2023-05-20T08:14:28;75783.31;;;-145.72;100.00
15914;BME280;8055;51.930;8.840;2023-05-20T08:16:54;75787.44;;;-145.72;100.00
15914;BME280;8055;51.930;8.840;2023-05-20T08:19:20;75797.78;;;-145.72;100.00
15914;BME280;8055;51.930;8.840;2023-05-20T08:21:45;75795.72;;;-145.72;100.00
15914;BME280;8055;51.930;8.840;2023-05-20T08:24:11;75799.88;;;-145.72;100.00
15914;BME280;8055;51.930;8.840;2023-05-20T08:26:37;75795.72;;;-145.72;100.00
15914;BME280;8055;51.930;8.840;2023-05-20T08:29:02;75766.75;;;-145.72;100.00
15914;BME280;8055;51.930;8.840;2023-05-20T08:31:27;75741.91;;;-145.72;97.54
15914;BME280;8055;51.930;8.840;2023-05-20T08:33:53;75729.50;;;-145.72;100.00
15914;BME280;8055;51.930;8.840;2023-05-20T08:36:18;75704.69;;;-145.72;100.00
15914;BME280;8055;51.930;8.840;2023-05-20T08:38:44;75704.69;;;-145.72;94.24
15914;BME280;8055;51.930;8.840;2023-05-20T08:41:09;75690.19;;;-145.72;94.09
15914;BME280;8055;51.930;8.840;2023-05-20T08:43:35;75692.25;;;-145.72;92.05
15914;BME280;8055;51.930;8.840;2023-05-20T08:46:01;75694.34;;;-145.72;92.44
15914;BME280;8055;51.930;8.840;2023-05-20T08:48:29;75690.19;;;-145.72;93.05
15914;BME280;8055;51.930;8.840;2023-05-20T08:50:56;75692.25;;;-145.72;95.71
15914;BME280;8055;51.930;8.840;2023-05-20T08:53:22;75677.78;;;-145.72;96.17
15914;BME280;8055;51.930;8.840;2023-05-20T08:55:52;75646.75;;;-145.72;98.78
15914;BME280;8055;51.930;8.840;2023-05-20T08:58:20;75655.03;;;-145.72;89.50
15914;BME280;8055;51.930;8.840;2023-05-20T09:00:46;75669.50;;;-145.72;91.16
15914;BME280;8055;51.930;8.840;2023-05-20T09:03:11;75677.78;;;-145.72;90.46
15914;BME280;8055;51.930;8.840;2023-05-20T09:05:37;75710.88;;;-145.72;93.14
15914;BME280;8055;51.930;8.840;2023-05-20T09:08:06;75704.69;;;-145.72;93.36
15914;BME280;8055;51.930;8.840;2023-05-20T09:10:32;75723.31;;;-145.72;95.18
15914;BME280;8055;51.930;8.840;2023-05-20T09:13:00;75702.59;;;-145.72;98.17
15914;BME280;8055;51.930;8.840;2023-05-20T09:15:26;75710.88;;;-145.72;93.08
15914;BME280;8055;51.930;8.840;2023-05-20T09:17:52;75731.56;;;-145.72;93.79
15914;BME280;8055;51.930;8.840;2023-05-20T09:20:20;75752.28;;;-145.72;92.98
15914;BME280;8055;51.930;8.840;2023-05-20T09:22:50;75766.75;;;-145.72;91.13
15914;BME280;8055;51.930;8.840;2023-05-20T09:25:19;75770.88;;;-145.72;92.41
15914;BME280;8055;51.930;8.840;2023-05-20T09:27:44;75758.47;;;-145.72;94.04
15914;BME280;8055;51.930;8.840;2023-05-20T09:30:10;75754.34;;;-145.72;99.43
15914;BME280;8055;51.930;8.840;2023-05-20T09:32:37;75731.56;;;-145.72;98.09
15914;BME280;8055;51.930;8.840;2023-05-20T09:35:02;75712.94;;;-145.72;95.57
15914;BME280;8055;51.930;8.840;2023-05-20T09:37:30;75715.03;;;-145.72;90.64
15914;BME280;8055;51.930;8.840;2023-05-20T09:40:07;75712.94;;;-145.72;93.11
15914;BME280;8055;51.930;8.840;2023-05-20T09:42:41;75717.09;;;-145.72;91.00
15914;BME280;8055;51.930;8.840;2023-05-20T09:45:08;75700.53;;;-145.72;93.68
15914;BME280;8055;51.930;8.840;2023-05-20T09:47:36;75694.34;;;-145.72;93.62
15914;BME280;8055;51.930;8.840;2023-05-20T09:50:07;75686.06;;;-145.72;92.76
15914;BME280;8055;51.930;8.840;2023-05-20T09:52:34;75655.03;;;-145.72;96.04
15914;BME280;8055;51.930;8.840;2023-05-20T09:55:02;75628.13;;;-145.72;95.81
15914;BME280;8055;51.930;8.840;2023-05-20T09:57:32;75619.84;;;-145.72;89.93
15914;BME280;8055;51.930;8.840;2023-05-20T09:59:58;75634.31;;;-145.72;85.86
15914;BME280;8055;51.930;8.840;2023-05-20T10:02:23;75617.78;;;-145.72;85.42
15914;BME280;8055;51.930;8.840;2023-05-20T10:04:50;75582.59;;;-145.72;84.25
15914;BME280;8055;51.930;8.840;2023-05-20T10:07:32;75566.03;;;-145.72;82.67
15914;BME280;8055;51.930;8.840;2023-05-20T10:18:32;75611.56;;;-145.72;85.33
15914;BME280;8055;51.930;8.840;2023-05-20T10:21:01;75628.13;;;-145.72;86.43
15914;BME280;8055;51.930;8.840;2023-05-20T10:23:28;75609.50;;;-145.72;86.00
15914;BME280;8055;51.930;8.840;2023-05-20T10:25:55;75628.13;;;-145.72;86.25
15914;BME280;8055;51.930;8.840;2023-05-20T10:28:32;75630.19;;;-145.72;89.15
15914;BME280;8055;51.930;8.840;2023-05-20T10:30:58;75636.41;;;-145.72;86.45
15914;BME280;8055;51.930;8.840;2023-05-20T10:33:25;75630.19;;;-145.72;87.31
15914;BME280;8055;51.930;8.840;2023-05-20T10:35:52;75650.88;;;-145.72;87.28
15914;BME280;8055;51.930;8.840;2023-05-20T10:38:18;75650.88;;;-145.72;89.86
15914;BME280;8055;51.930;8.840;2023-05-20T10:40:45;75659.16;;;-145.72;88.37
15914;BME280;8055;51.930;8.840;2023-05-20T10:43:32;75688.13;;;-145.72;90.27
15914;BME280;8055;51.930;8.840;2023-05-20T10:45:57;75690.19;;;-145.72;89.73
15914;BME280;8055;51.930;8.840;2023-05-20T10:48:26;75698.47;;;-145.72;88.97
15914;BME280;8055;51.930;8.840;2023-05-20T10:50:58;75681.91;;;-145.72;90.68
15914;BME280;8055;51.930;8.840;2023-05-20T10:53:26;75667.44;;;-145.72;90.27
15914;BME280;8055;51.930;8.840;2023-05-20T10:55:53;75675.72;;;-145.72;86.87
15914;BME280;8055;51.930;8.840;2023-05-20T10:58:22;75675.72;;;-145.72;89.03
15914;BME280;8055;51.930;8.840;2023-05-20T11:00:51;75690.19;;;-145.72;86.94
15914;BME280;8055;51.930;8.840;2023-05-20T11:03:17;75688.13;;;-145.72;88.38
15914;BME280;8055;51.930;8.840;2023-05-20T11:05:46;75671.56;;;-145.72;87.16
15914;BME280;8055;51.930;8.840;2023-05-20T11:08:13;75684.00;;;-145.72;91.38
15914;BME280;8055;51.930;8.840;2023-05-20T11:10:38;75677.78;;;-145.72;86.98
15914;BME280;8055;51.930;8.840;2023-05-20T11:13:05;75667.44;;;-145.72;88.03
15914;BME280;8055;51.930;8.840;2023-05-20T11:15:33;75671.56;;;-145.72;87.14
15914;BME280;8055;51.930;8.840;2023-05-20T11:18:00;75655.03;;;-145.72;88.58
15914;BME280;8055;51.930;8.840;2023-05-20T11:20:26;75644.66;;;-145.72;88.33
15914;BME280;8055;51.930;8.840;2023-05-20T11:22:53;75623.97;;;-145.72;92.15
15914;BME280;8055;51.930;8.840;2023-05-20T11:25:19;75603.28;;;-145.72;89.22
15914;BME280;8055;51.930;8.840;2023-05-20T11:27:45;75597.09;;;-145.72;88.42
15914;BME280;8055;51.930;8.840;2023-05-20T11:30:12;75603.28;;;-145.72;88.33
15914;BME280;8055;51.930;8.840;2023-05-20T11:32:59;75617.78;;;-145.72;87.03
15914;BME280;8055;51.930;8.840;2023-05-20T11:35:26;75634.31;;;-145.72;87.20
15914;BME280;8055;51.930;8.840;2023-05-20T11:37:55;75650.88;;;-145.72;88.69
15914;BME280;8055;51.930;8.840;2023-05-20T11:40:25;75655.03;;;-145.72;89.58
15914;BME280;8055;51.930;8.840;2023-05-20T11:42:59;75650.88;;;-145.72;89.97
15914;BME280;8055;51.930;8.840;2023-05-20T11:45:25;75665.38;;;-145.72;90.86
15914;BME280;8055;51.930;8.840;2023-05-20T11:48:01;75671.56;;;-145.72;90.74
15914;BME280;8055;51.930;8.840;2023-05-20T11:50:27;75681.91;;;-145.72;89.45
15914;BME280;8055;51.930;8.840;2023-05-20T11:52:59;75681.91;;;-145.72;92.04
15914;BME280;8055;51.930;8.840;2023-05-20T11:55:25;75679.84;;;-145.72;94.17
15914;BME280;8055;51.930;8.840;2023-05-20T11:57:51;75684.00;;;-145.72;94.28
15914;BME280;8055;51.930;8.840;2023-05-20T12:00:17;75661.22;;;-145.72;97.00
15914;BME280;8055;51.930;8.840;2023-05-20T12:02:43;75667.44;;;-145.72;93.31
15914;BME280;8055;51.930;8.840;2023-05-20T12:05:09;75661.22;;;-145.72;90.30
15914;BME280;8055;51.930;8.840;2023-05-20T12:07:34;75667.44;;;-145.72;91.95
15914;BME280;8055;51.930;8.840;2023-05-20T12:10:02;75669.50;;;-145.72;91.96
15914;BME280;8055;51.930;8.840;2023-05-20T12:12:27;75657.09;;;-145.72;90.78
15914;BME280;8055;51.930;8.840;2023-05-20T12:14:53;75642.59;;;-145.72;88.03
15914;BME280;8055;51.930;8.840;2023-05-20T12:17:18;75638.47;;;-145.72;87.38
15914;BME280;8055;51.930;8.840;2023-05-20T12:19:43;75626.06;;;-145.72;89.04
15914;BME280;8055;51.930;8.840;2023-05-20T12:22:09;75613.63;;;-145.72;87.67
15914;BME280;8055;51.930;8.840;2023-05-20T12:24:35;75607.44;;;-145.72;90.96
15914;BME280;8055;51.930;8.840;2023-05-20T12:27:00;75609.50;;;-145.72;89.59
15914;BME280;8055;51.930;8.840;2023-05-20T12:29:28;75590.88;;;-145.72;88.82
15914;BME280;8055;51.930;8.840;2023-05-20T12:31:53;75586.72;;;-145.72;86.22
15914;BME280;8055;51.930;8.840;2023-05-20T12:34:19;75526.72;;;-145.72;88.58
15914;BME280;8055;51.930;8.840;2023-05-20T12:36:44;75452.25;;;-145.72;83.72
15914;BME280;8055;51.930;8.840;2023-05-20T12:39:10;75441.91;;;-145.72;80.90
15914;BME280;8055;51.930;8.840;2023-05-20T12:41:36;75388.09;;;-145.72;77.59
15914;BME280;8055;51.930;8.840;2023-05-20T12:44:01;75344.66;;;-145.72;78.09
15914;BME280;8055;51.930;8.840;2023-05-20T12:46:27;75340.50;;;-145.72;74.52